Columbia, Iowa
Current Conditions -  °F | °C
As of 1:55 PM on Sunday 23 Nov 2014 (Local Time) from KOXV Reporting Station
Overcast Overcast  
Wind Chill: 54°   Ceiling: 300
Heat Index: 54°   Visibility: 9mi
Dew Point: 52°   Wind: 3mph
Humidity: 94%   Direction: 210°SSW
Pressure: 29.34"   Gusts: NA
Location:  41.18°N, 93.15°W
Report Text: KOXV 231955Z AUTO 21003KT 9SM OVC003 12/11 A2934 RMK AO2 P0004
Loading
Personal Weather Stations






























Interactive Weather Map New forecast layout! Learn more

10-Day Weather Forecast

Advertisements
Track Severe Weather on mobile